sensor_id;sensor_type;location;lat;lon;timestamp;pressure;altitude;pressure_sealevel;temperature;humidity
68226;BME280;55045;49.410;11.030;2022-08-20T00:03:01;98017.53;;;16.95;100.00
68226;BME280;55045;49.410;11.030;2022-08-20T00:06:08;98018.03;;;17.01;100.00
68226;BME280;55045;49.410;11.030;2022-08-20T00:09:13;98013.84;;;16.87;100.00
68226;BME280;55045;49.410;11.030;2022-08-20T00:12:17;98019.81;;;17.00;100.00
68226;BME280;55045;49.410;11.030;2022-08-20T00:15:22;98003.44;;;16.85;100.00
68226;BME280;55045;49.410;11.030;2022-08-20T00:18:27;98020.16;;;16.95;100.00
68226;BME280;55045;49.410;11.030;2022-08-20T00:21:30;98012.28;;;16.95;100.00
68226;BME280;55045;49.410;11.030;2022-08-20T00:24:37;98007.78;;;16.97;100.00
68226;BME280;55045;49.410;11.030;2022-08-20T00:27:41;98004.53;;;16.94;100.00
68226;BME280;55045;49.410;11.030;2022-08-20T00:30:45;98004.22;;;16.98;100.00
68226;BME280;55045;49.410;11.030;2022-08-20T00:33:49;97984.66;;;16.80;100.00
68226;BME280;55045;49.410;11.030;2022-08-20T00:36:53;97978.06;;;16.75;100.00
68226;BME280;55045;49.410;11.030;2022-08-20T00:39:58;98002.03;;;16.81;100.00
68226;BME280;55045;49.410;11.030;2022-08-20T00:43:04;98005.16;;;16.86;100.00
68226;BME280;55045;49.410;11.030;2022-08-20T00:46:10;98007.38;;;16.80;100.00
68226;BME280;55045;49.410;11.030;2022-08-20T00:49:17;98016.09;;;16.91;100.00
68226;BME280;55045;49.410;11.030;2022-08-20T00:52:20;98017.75;;;16.92;100.00
68226;BME280;55045;49.410;11.030;2022-08-20T00:55:26;98016.94;;;16.92;100.00
68226;BME280;55045;49.410;11.030;2022-08-20T00:58:33;98022.56;;;16.98;100.00
68226;BME280;55045;49.410;11.030;2022-08-20T01:01:39;98026.31;;;16.83;100.00
68226;BME280;55045;49.410;11.030;2022-08-20T01:04:57;98016.09;;;16.91;100.00
68226;BME280;55045;49.410;11.030;2022-08-20T01:08:01;98017.41;;;16.86;100.00
68226;BME280;55045;49.410;11.030;2022-08-20T01:11:06;98025.59;;;16.81;100.00
68226;BME280;55045;49.410;11.030;2022-08-20T01:14:13;98028.00;;;16.95;100.00
68226;BME280;55045;49.410;11.030;2022-08-20T01:17:34;98027.09;;;16.96;100.00
68226;BME280;55045;49.410;11.030;2022-08-20T01:20:40;98028.75;;;17.09;100.00
68226;BME280;55045;49.410;11.030;2022-08-20T01:23:50;98032.44;;;17.06;100.00
68226;BME280;55045;49.410;11.030;2022-08-20T01:27:00;98013.34;;;16.93;100.00
68226;BME280;55045;49.410;11.030;2022-08-20T01:30:06;98014.56;;;16.89;100.00
68226;BME280;55045;49.410;11.030;2022-08-20T01:33:10;98011.44;;;16.95;100.00
68226;BME280;55045;49.410;11.030;2022-08-20T01:36:15;97993.91;;;16.73;100.00
68226;BME280;55045;49.410;11.030;2022-08-20T01:39:23;98021.06;;;16.83;100.00
68226;BME280;55045;49.410;11.030;2022-08-20T01:42:32;98004.31;;;16.86;100.00
68226;BME280;55045;49.410;11.030;2022-08-20T01:45:58;98015.84;;;16.83;100.00
68226;BME280;55045;49.410;11.030;2022-08-20T01:49:12;98017.28;;;16.87;100.00
68226;BME280;55045;49.410;11.030;2022-08-20T01:52:33;98007.97;;;16.83;100.00
68226;BME280;55045;49.410;11.030;2022-08-20T01:55:38;98012.88;;;16.88;100.00
68226;BME280;55045;49.410;11.030;2022-08-20T01:58:45;98013.09;;;16.85;100.00
68226;BME280;55045;49.410;11.030;2022-08-20T02:01:57;98014.88;;;16.84;100.00
68226;BME280;55045;49.410;11.030;2022-08-20T02:05:01;98016.69;;;16.95;100.00
68226;BME280;55045;49.410;11.030;2022-08-20T02:08:04;98013.22;;;16.83;100.00
68226;BME280;55045;49.410;11.030;2022-08-20T02:11:09;98017.41;;;16.86;100.00
68226;BME280;55045;49.410;11.030;2022-08-20T02:14:15;98026.34;;;17.06;100.00
68226;BME280;55045;49.410;11.030;2022-08-20T02:17:19;98018.25;;;16.86;100.00
68226;BME280;55045;49.410;11.030;2022-08-20T02:20:27;98025.38;;;16.95;100.00
68226;BME280;55045;49.410;11.030;2022-08-20T02:23:34;98027.41;;;16.92;100.00
68226;BME280;55045;49.410;11.030;2022-08-20T02:26:37;98031.34;;;16.86;100.00
68226;BME280;55045;49.410;11.030;2022-08-20T02:29:43;98024.53;;;16.84;100.00
68226;BME280;55045;49.410;11.030;2022-08-20T02:32:48;98020.63;;;16.89;100.00
68226;BME280;55045;49.410;11.030;2022-08-20T02:35:57;98012.50;;;16.81;100.00
68226;BME280;55045;49.410;11.030;2022-08-20T02:39:00;98013.00;;;16.86;100.00
68226;BME280;55045;49.410;11.030;2022-08-20T02:42:05;98006.06;;;16.85;100.00
68226;BME280;55045;49.410;11.030;2022-08-20T02:45:10;98014.31;;;16.92;100.00
68226;BME280;55045;49.410;11.030;2022-08-20T02:48:20;98020.88;;;16.86;100.00
68226;BME280;55045;49.410;11.030;2022-08-20T02:51:24;98019.16;;;16.85;100.00
68226;BME280;55045;49.410;11.030;2022-08-20T02:54:31;98011.06;;;16.77;100.00
68226;BME280;55045;49.410;11.030;2022-08-20T02:57:35;98012.75;;;16.89;100.00
68226;BME280;55045;49.410;11.030;2022-08-20T03:00:40;98006.56;;;16.79;100.00
68226;BME280;55045;49.410;11.030;2022-08-20T03:03:44;98000.50;;;16.90;100.00
68226;BME280;55045;49.410;11.030;2022-08-20T03:06:47;98001.56;;;16.76;100.00
68226;BME280;55045;49.410;11.030;2022-08-20T03:09:53;97997.25;;;16.75;100.00
68226;BME280;55045;49.410;11.030;2022-08-20T03:12:56;98005.00;;;16.77;100.00
68226;BME280;55045;49.410;11.030;2022-08-20T03:16:04;98003.16;;;16.66;100.00
68226;BME280;55045;49.410;11.030;2022-08-20T03:19:08;98006.69;;;16.65;100.00
68226;BME280;55045;49.410;11.030;2022-08-20T03:22:11;98016.53;;;16.74;100.00
68226;BME280;55045;49.410;11.030;2022-08-20T03:25:15;98010.25;;;16.77;100.00
68226;BME280;55045;49.410;11.030;2022-08-20T03:28:18;98014.97;;;16.72;100.00
68226;BME280;55045;49.410;11.030;2022-08-20T03:34:29;97989.75;;;16.47;100.00
68226;BME280;55045;49.410;11.030;2022-08-20T03:37:34;98014.78;;;16.62;100.00
68226;BME280;55045;49.410;11.030;2022-08-20T03:40:40;98018.59;;;16.58;100.00
68226;BME280;55045;49.410;11.030;2022-08-20T03:43:44;98012.84;;;16.53;100.00
68226;BME280;55045;49.410;11.030;2022-08-20T03:46:47;98021.94;;;16.60;100.00
68226;BME280;55045;49.410;11.030;2022-08-20T03:49:57;98013.38;;;16.58;100.00
68226;BME280;55045;49.410;11.030;2022-08-20T03:53:01;98024.94;;;16.66;100.00
68226;BME280;55045;49.410;11.030;2022-08-20T03:56:05;98018.25;;;16.62;100.00
68226;BME280;55045;49.410;11.030;2022-08-20T03:59:08;98026.03;;;16.75;100.00
68226;BME280;55045;49.410;11.030;2022-08-20T04:02:12;98028.50;;;16.65;100.00
68226;BME280;55045;49.410;11.030;2022-08-20T04:05:17;98039.53;;;16.58;100.00
68226;BME280;55045;49.410;11.030;2022-08-20T04:08:24;98038.59;;;16.59;100.00
68226;BME280;55045;49.410;11.030;2022-08-20T04:11:28;98038.91;;;16.54;100.00
68226;BME280;55045;49.410;11.030;2022-08-20T04:14:33;98040.97;;;16.62;100.00
68226;BME280;55045;49.410;11.030;2022-08-20T04:17:39;98047.88;;;16.63;100.00
68226;BME280;55045;49.410;11.030;2022-08-20T04:20:44;98043.00;;;16.58;100.00
68226;BME280;55045;49.410;11.030;2022-08-20T04:23:48;98057.88;;;16.58;100.00
68226;BME280;55045;49.410;11.030;2022-08-20T04:26:51;98059.06;;;16.65;100.00
68226;BME280;55045;49.410;11.030;2022-08-20T04:29:56;98063.59;;;16.63;100.00
68226;BME280;55045;49.410;11.030;2022-08-20T04:32:59;98063.44;;;16.53;100.00
68226;BME280;55045;49.410;11.030;2022-08-20T04:36:04;98071.56;;;16.61;100.00
68226;BME280;55045;49.410;11.030;2022-08-20T04:39:08;98080.03;;;16.65;100.00
68226;BME280;55045;49.410;11.030;2022-08-20T04:42:11;98073.34;;;16.61;100.00
68226;BME280;55045;49.410;11.030;2022-08-20T04:45:15;98071.25;;;16.66;100.00
68226;BME280;55045;49.410;11.030;2022-08-20T04:48:19;98069.78;;;16.62;100.00
68226;BME280;55045;49.410;11.030;2022-08-20T04:51:26;98073.53;;;16.70;100.00
68226;BME280;55045;49.410;11.030;2022-08-20T04:54:32;98077.50;;;16.63;100.00
68226;BME280;55045;49.410;11.030;2022-08-20T04:57:36;98079.78;;;16.57;100.00
68226;BME280;55045;49.410;11.030;2022-08-20T05:00:40;98079.53;;;16.60;100.00
68226;BME280;55045;49.410;11.030;2022-08-20T05:03:43;98088.00;;;16.63;100.00
68226;BME280;55045;49.410;11.030;2022-08-20T05:06:50;98089.66;;;16.64;100.00
68226;BME280;55045;49.410;11.030;2022-08-20T05:09:55;98085.00;;;16.81;100.00
68226;BME280;55045;49.410;11.030;2022-08-20T05:12:58;98088.84;;;16.88;100.00
68226;BME280;55045;49.410;11.030;2022-08-20T05:16:02;98085.56;;;16.73;100.00
68226;BME280;55045;49.410;11.030;2022-08-20T05:19:07;98078.34;;;16.64;100.00
68226;BME280;55045;49.410;11.030;2022-08-20T05:22:12;98083.06;;;16.72;100.00
68226;BME280;55045;49.410;11.030;2022-08-20T05:25:15;98071.31;;;16.77;100.00
68226;BME280;55045;49.410;11.030;2022-08-20T05:28:21;98078.66;;;16.72;100.00
68226;BME280;55045;49.410;11.030;2022-08-20T05:31:25;98089.13;;;16.72;100.00
68226;BME280;55045;49.410;11.030;2022-08-20T05:34:33;98087.50;;;16.82;100.00
68226;BME280;55045;49.410;11.030;2022-08-20T05:37:39;98089.25;;;16.70;100.00
68226;BME280;55045;49.410;11.030;2022-08-20T05:40:43;98091.78;;;16.83;100.00
68226;BME280;55045;49.410;11.030;2022-08-20T05:43:47;98094.28;;;16.85;100.00
68226;BME280;55045;49.410;11.030;2022-08-20T05:46:52;98088.03;;;16.87;100.00
68226;BME280;55045;49.410;11.030;2022-08-20T05:49:55;98080.84;;;16.78;100.00
68226;BME280;55045;49.410;11.030;2022-08-20T05:53:00;98086.47;;;16.96;100.00
68226;BME280;55045;49.410;11.030;2022-08-20T05:56:04;98090.28;;;16.92;100.00
68226;BME280;55045;49.410;11.030;2022-08-20T05:59:08;98091.34;;;16.89;100.00
68226;BME280;55045;49.410;11.030;2022-08-20T06:02:13;98096.59;;;16.89;100.00
68226;BME280;55045;49.410;11.030;2022-08-20T06:05:34;98098.75;;;16.95;100.00
68226;BME280;55045;49.410;11.030;2022-08-20T06:08:39;98088.75;;;17.01;100.00
68226;BME280;55045;49.410;11.030;2022-08-20T06:11:42;98113.91;;;17.03;100.00
68226;BME280;55045;49.410;11.030;2022-08-20T06:14:46;98118.03;;;17.30;100.00
68226;BME280;55045;49.410;11.030;2022-08-20T06:17:49;98109.69;;;17.47;100.00
68226;BME280;55045;49.410;11.030;2022-08-20T06:20:59;98106.25;;;17.46;100.00
68226;BME280;55045;49.410;11.030;2022-08-20T06:24:04;98110.50;;;17.36;100.00
68226;BME280;55045;49.410;11.030;2022-08-20T06:27:12;98112.44;;;17.45;100.00
68226;BME280;55045;49.410;11.030;2022-08-20T06:30:16;98118.06;;;17.41;100.00
68226;BME280;55045;49.410;11.030;2022-08-20T06:33:19;98122.72;;;17.48;100.00
68226;BME280;55045;49.410;11.030;2022-08-20T06:36:23;98114.91;;;17.71;100.00
68226;BME280;55045;49.410;11.030;2022-08-20T06:39:28;98113.81;;;17.96;100.00
68226;BME280;55045;49.410;11.030;2022-08-20T06:42:32;98114.44;;;17.88;100.00
68226;BME280;55045;49.410;11.030;2022-08-20T06:45:36;98110.13;;;17.76;100.00
68226;BME280;55045;49.410;11.030;2022-08-20T06:48:40;98101.91;;;18.03;100.00
68226;BME280;55045;49.410;11.030;2022-08-20T06:51:43;98103.44;;;18.05;100.00
68226;BME280;55045;49.410;11.030;2022-08-20T06:54:54;98094.84;;;18.03;100.00
68226;BME280;55045;49.410;11.030;2022-08-20T06:57:57;98083.03;;;17.98;100.00
68226;BME280;55045;49.410;11.030;2022-08-20T07:01:01;98094.09;;;18.24;100.00
68226;BME280;55045;49.410;11.030;2022-08-20T07:04:11;98105.06;;;18.29;100.00
68226;BME280;55045;49.410;11.030;2022-08-20T07:07:15;98097.28;;;18.38;100.00
68226;BME280;55045;49.410;11.030;2022-08-20T07:10:22;98098.38;;;18.36;100.00
68226;BME280;55045;49.410;11.030;2022-08-20T07:13:26;98100.00;;;18.48;100.00
68226;BME280;55045;49.410;11.030;2022-08-20T07:16:30;98093.78;;;18.49;100.00
68226;BME280;55045;49.410;11.030;2022-08-20T07:19:35;98098.78;;;18.75;100.00
68226;BME280;55045;49.410;11.030;2022-08-20T07:22:41;98096.22;;;18.84;100.00
68226;BME280;55045;49.410;11.030;2022-08-20T07:25:46;98081.63;;;18.91;100.00
68226;BME280;55045;49.410;11.030;2022-08-20T07:28:50;98078.19;;;18.80;100.00
68226;BME280;55045;49.410;11.030;2022-08-20T07:31:53;98085.13;;;18.81;100.00
68226;BME280;55045;49.410;11.030;2022-08-20T07:35:16;98082.75;;;18.78;100.00
68226;BME280;55045;49.410;11.030;2022-08-20T07:38:22;98086.22;;;18.99;100.00
68226;BME280;55045;49.410;11.030;2022-08-20T07:41:27;98083.22;;;18.83;100.00
68226;BME280;55045;49.410;11.030;2022-08-20T07:44:30;98090.28;;;19.03;100.00
68226;BME280;55045;49.410;11.030;2022-08-20T07:47:34;98092.63;;;18.85;100.00
68226;BME280;55045;49.410;11.030;2022-08-20T07:50:38;98089.16;;;18.85;100.00
68226;BME280;55045;49.410;11.030;2022-08-20T07:53:45;98105.22;;;19.03;100.00
68226;BME280;55045;49.410;11.030;2022-08-20T07:56:51;98099.97;;;19.03;100.00
68226;BME280;55045;49.410;11.030;2022-08-20T07:59:55;98098.16;;;18.82;100.00
68226;BME280;55045;49.410;11.030;2022-08-20T08:03:01;98105.44;;;18.99;100.00
68226;BME280;55045;49.410;11.030;2022-08-20T08:06:05;98101.44;;;18.95;100.00
68226;BME280;55045;49.410;11.030;2022-08-20T08:09:11;98108.41;;;18.85;100.00
68226;BME280;55045;49.410;11.030;2022-08-20T08:12:16;98103.75;;;18.78;100.00
68226;BME280;55045;49.410;11.030;2022-08-20T08:15:24;98106.78;;;18.73;100.00
68226;BME280;55045;49.410;11.030;2022-08-20T08:18:32;98105.56;;;18.77;100.00
68226;BME280;55045;49.410;11.030;2022-08-20T08:21:37;98116.41;;;18.84;100.00
68226;BME280;55045;49.410;11.030;2022-08-20T08:24:42;98118.78;;;18.87;100.00
68226;BME280;55045;49.410;11.030;2022-08-20T08:28:00;98122.66;;;18.72;100.00
68226;BME280;55045;49.410;11.030;2022-08-20T08:31:04;98108.94;;;18.68;100.00
68226;BME280;55045;49.410;11.030;2022-08-20T08:34:08;98106.19;;;18.69;100.00
68226;BME280;55045;49.410;11.030;2022-08-20T08:37:11;98114.78;;;18.72;100.00
68226;BME280;55045;49.410;11.030;2022-08-20T08:40:15;98114.88;;;18.81;100.00
68226;BME280;55045;49.410;11.030;2022-08-20T08:43:21;98112.59;;;18.77;100.00
68226;BME280;55045;49.410;11.030;2022-08-20T08:46:37;98114.69;;;18.94;100.00
68226;BME280;55045;49.410;11.030;2022-08-20T08:49:41;98115.47;;;19.26;100.00
68226;BME280;55045;49.410;11.030;2022-08-20T08:52:45;98120.53;;;19.39;100.00
68226;BME280;55045;49.410;11.030;2022-08-20T08:55:50;98108.56;;;19.46;100.00
68226;BME280;55045;49.410;11.030;2022-08-20T08:58:57;98097.63;;;19.51;100.00
68226;BME280;55045;49.410;11.030;2022-08-20T09:02:05;98109.94;;;20.02;100.00
68226;BME280;55045;49.410;11.030;2022-08-20T09:05:12;98111.59;;;19.93;100.00
68226;BME280;55045;49.410;11.030;2022-08-20T09:08:19;98114.16;;;20.14;100.00
68226;BME280;55045;49.410;11.030;2022-08-20T09:11:26;98108.91;;;20.24;100.00
68226;BME280;55045;49.410;11.030;2022-08-20T09:14:32;98097.06;;;20.49;100.00
68226;BME280;55045;49.410;11.030;2022-08-20T09:17:37;98099.00;;;20.47;100.00
68226;BME280;55045;49.410;11.030;2022-08-20T09:20:40;98098.31;;;20.74;100.00
68226;BME280;55045;49.410;11.030;2022-08-20T09:23:44;98091.25;;;20.84;100.00
68226;BME280;55045;49.410;11.030;2022-08-20T09:26:47;98097.63;;;21.00;100.00
68226;BME280;55045;49.410;11.030;2022-08-20T09:29:52;98089.72;;;21.10;100.00
68226;BME280;55045;49.410;11.030;2022-08-20T09:34:29;98073.50;;;20.57;100.00
68226;BME280;55045;49.410;11.030;2022-08-20T09:37:32;98086.81;;;21.04;100.00
68226;BME280;55045;49.410;11.030;2022-08-20T09:40:39;98087.53;;;21.06;100.00
68226;BME280;55045;49.410;11.030;2022-08-20T09:43:42;98080.16;;;20.99;100.00
68226;BME280;55045;49.410;11.030;2022-08-20T09:46:46;98077.66;;;21.17;100.00
68226;BME280;55045;49.410;11.030;2022-08-20T09:49:50;98087.47;;;21.25;100.00
68226;BME280;55045;49.410;11.030;2022-08-20T09:52:56;98089.03;;;21.18;100.00
68226;BME280;55045;49.410;11.030;2022-08-20T09:56:00;98066.28;;;21.17;100.00
68226;BME280;55045;49.410;11.030;2022-08-20T09:59:04;98092.38;;;20.91;100.00
68226;BME280;55045;49.410;11.030;2022-08-20T10:02:07;98088.91;;;20.90;100.00
68226;BME280;55045;49.410;11.030;2022-08-20T10:05:12;98086.56;;;20.97;100.00
68226;BME280;55045;49.410;11.030;2022-08-20T10:08:16;98088.06;;;20.90;100.00
68226;BME280;55045;49.410;11.030;2022-08-20T10:11:19;98094.84;;;20.73;100.00
68226;BME280;55045;49.410;11.030;2022-08-20T10:14:23;98093.06;;;20.93;100.00
68226;BME280;55045;49.410;11.030;2022-08-20T10:17:26;98100.56;;;20.68;100.00
68226;BME280;55045;49.410;11.030;2022-08-20T10:20:31;98084.75;;;20.88;100.00
68226;BME280;55045;49.410;11.030;2022-08-20T10:23:35;98091.53;;;20.81;100.00
68226;BME280;55045;49.410;11.030;2022-08-20T10:26:38;98100.41;;;21.09;100.00
68226;BME280;55045;49.410;11.030;2022-08-20T10:29:41;98088.75;;;21.02;100.00
68226;BME280;55045;49.410;11.030;2022-08-20T10:32:48;98090.56;;;20.72;100.00
68226;BME280;55045;49.410;11.030;2022-08-20T10:35:52;98085.72;;;20.96;100.00
68226;BME280;55045;49.410;11.030;2022-08-20T10:39:01;98084.59;;;21.18;100.00
68226;BME280;55045;49.410;11.030;2022-08-20T10:42:04;98081.28;;;21.07;100.00
68226;BME280;55045;49.410;11.030;2022-08-20T10:45:09;98067.06;;;21.46;100.00
68226;BME280;55045;49.410;11.030;2022-08-20T10:48:12;98070.63;;;21.55;100.00
68226;BME280;55045;49.410;11.030;2022-08-20T10:51:23;98063.50;;;21.65;100.00
68226;BME280;55045;49.410;11.030;2022-08-20T10:54:33;98063.34;;;21.76;100.00
68226;BME280;55045;49.410;11.030;2022-08-20T10:57:39;98063.22;;;21.96;100.00
68226;BME280;55045;49.410;11.030;2022-08-20T11:00:44;98063.00;;;22.17;100.00
68226;BME280;55045;49.410;11.030;2022-08-20T11:03:48;98058.72;;;22.06;100.00
68226;BME280;55045;49.410;11.030;2022-08-20T11:06:55;98056.88;;;22.43;100.00
68226;BME280;55045;49.410;11.030;2022-08-20T11:09:58;98050.06;;;22.23;100.00
68226;BME280;55045;49.410;11.030;2022-08-20T11:13:04;98053.47;;;22.51;100.00
68226;BME280;55045;49.410;11.030;2022-08-20T11:16:08;98059.28;;;22.55;100.00
68226;BME280;55045;49.410;11.030;2022-08-20T11:19:11;98050.25;;;22.39;100.00
68226;BME280;55045;49.410;11.030;2022-08-20T11:22:16;98052.59;;;22.60;100.00
68226;BME280;55045;49.410;11.030;2022-08-20T11:25:20;98046.63;;;22.94;100.00
68226;BME280;55045;49.410;11.030;2022-08-20T11:28:24;98051.00;;;22.85;100.00
68226;BME280;55045;49.410;11.030;2022-08-20T11:31:33;98017.28;;;22.87;100.00
68226;BME280;55045;49.410;11.030;2022-08-20T11:34:37;98037.91;;;23.27;100.00
68226;BME280;55045;49.410;11.030;2022-08-20T11:37:41;98028.25;;;22.75;100.00
68226;BME280;55045;49.410;11.030;2022-08-20T11:40:45;98022.06;;;22.84;100.00
68226;BME280;55045;49.410;11.030;2022-08-20T11:43:48;98027.50;;;22.64;100.00
68226;BME280;55045;49.410;11.030;2022-08-20T11:47:20;98031.03;;;22.37;100.00
68226;BME280;55045;49.410;11.030;2022-08-20T11:50:23;98035.50;;;22.37;100.00
68226;BME280;55045;49.410;11.030;2022-08-20T11:53:28;98021.16;;;22.22;100.00
68226;BME280;55045;49.410;11.030;2022-08-20T11:56:33;98034.25;;;22.13;100.00
68226;BME280;55045;49.410;11.030;2022-08-20T11:59:38;98030.44;;;22.26;100.00
68226;BME280;55045;49.410;11.030;2022-08-20T12:02:41;98034.72;;;22.27;100.00
68226;BME280;55045;49.410;11.030;2022-08-20T12:05:45;98036.59;;;21.89;100.00
68226;BME280;55045;49.410;11.030;2022-08-20T12:08:50;98048.22;;;21.96;100.00
68226;BME280;55045;49.410;11.030;2022-08-20T12:11:53;98037.41;;;21.62;100.00
68226;BME280;55045;49.410;11.030;2022-08-20T12:14:57;98068.75;;;21.18;100.00
68226;BME280;55045;49.410;11.030;2022-08-20T12:18:01;98079.47;;;20.88;100.00
68226;BME280;55045;49.410;11.030;2022-08-20T12:21:07;98092.94;;;20.75;100.00
68226;BME280;55045;49.410;11.030;2022-08-20T12:24:12;98088.22;;;20.88;100.00
68226;BME280;55045;49.410;11.030;2022-08-20T12:27:18;98096.81;;;21.10;100.00
68226;BME280;55045;49.410;11.030;2022-08-20T12:30:23;98063.34;;;21.30;100.00
68226;BME280;55045;49.410;11.030;2022-08-20T12:33:26;98071.75;;;21.52;100.00
68226;BME280;55045;49.410;11.030;2022-08-20T12:36:30;98071.47;;;21.55;100.00
68226;BME280;55045;49.410;11.030;2022-08-20T12:39:36;98065.84;;;21.78;100.00
68226;BME280;55045;49.410;11.030;2022-08-20T12:42:41;98068.00;;;21.92;100.00
68226;BME280;55045;49.410;11.030;2022-08-20T12:45:44;98056.34;;;21.85;100.00
68226;BME280;55045;49.410;11.030;2022-08-20T12:48:47;98056.91;;;21.89;100.00
68226;BME280;55045;49.410;11.030;2022-08-20T12:51:51;98054.50;;;21.68;100.00
68226;BME280;55045;49.410;11.030;2022-08-20T12:54:56;98052.47;;;21.42;100.00
68226;BME280;55045;49.410;11.030;2022-08-20T12:58:01;98056.56;;;21.27;100.00
68226;BME280;55045;49.410;11.030;2022-08-20T13:01:05;98067.94;;;21.27;100.00
68226;BME280;55045;49.410;11.030;2022-08-20T13:04:08;98078.06;;;20.93;100.00
68226;BME280;55045;49.410;11.030;2022-08-20T13:07:13;98077.09;;;20.94;100.00
68226;BME280;55045;49.410;11.030;2022-08-20T13:10:21;98093.19;;;20.91;100.00
68226;BME280;55045;49.410;11.030;2022-08-20T13:13:25;98084.59;;;20.89;100.00
68226;BME280;55045;49.410;11.030;2022-08-20T13:16:28;98086.69;;;20.57;100.00
68226;BME280;55045;49.410;11.030;2022-08-20T13:19:33;98104.63;;;20.32;100.00
68226;BME280;55045;49.410;11.030;2022-08-20T13:22:37;98110.13;;;20.20;100.00
68226;BME280;55045;49.410;11.030;2022-08-20T13:25:42;98103.00;;;20.01;100.00
68226;BME280;55045;49.410;11.030;2022-08-20T13:28:45;98106.09;;;20.06;100.00
68226;BME280;55045;49.410;11.030;2022-08-20T13:31:48;98098.47;;;20.03;100.00
68226;BME280;55045;49.410;11.030;2022-08-20T13:34:52;98104.72;;;20.21;100.00
68226;BME280;55045;49.410;11.030;2022-08-20T13:37:55;98103.69;;;20.33;100.00
68226;BME280;55045;49.410;11.030;2022-08-20T13:41:00;98095.88;;;20.32;100.00
68226;BME280;55045;49.410;11.030;2022-08-20T13:44:04;98095.00;;;20.62;100.00
68226;BME280;55045;49.410;11.030;2022-08-20T13:47:14;98081.81;;;20.52;100.00
68226;BME280;55045;49.410;11.030;2022-08-20T13:50:19;98072.25;;;20.80;100.00
68226;BME280;55045;49.410;11.030;2022-08-20T13:53:23;98066.69;;;20.93;100.00
68226;BME280;55045;49.410;11.030;2022-08-20T13:56:27;98052.00;;;20.90;100.00
68226;BME280;55045;49.410;11.030;2022-08-20T13:59:34;98044.22;;;21.27;100.00
68226;BME280;55045;49.410;11.030;2022-08-20T14:02:37;98045.16;;;21.36;100.00
68226;BME280;55045;49.410;11.030;2022-08-20T14:05:41;98045.81;;;21.48;100.00
68226;BME280;55045;49.410;11.030;2022-08-20T14:08:45;98042.59;;;21.44;100.00
68226;BME280;55045;49.410;11.030;2022-08-20T14:11:50;97994.94;;;21.09;100.00
68226;BME280;55045;49.410;11.030;2022-08-20T14:14:54;98046.22;;;21.43;100.00
68226;BME280;55045;49.410;11.030;2022-08-20T14:17:58;98058.38;;;21.64;100.00
68226;BME280;55045;49.410;11.030;2022-08-20T14:21:01;98046.34;;;21.51;100.00
68226;BME280;55045;49.410;11.030;2022-08-20T14:24:04;98053.41;;;21.61;100.00
68226;BME280;55045;49.410;11.030;2022-08-20T14:27:10;98060.06;;;21.55;100.00
68226;BME280;55045;49.410;11.030;2022-08-20T14:30:17;98063.69;;;21.54;100.00
68226;BME280;55045;49.410;11.030;2022-08-20T14:33:22;98049.34;;;21.29;100.00
68226;BME280;55045;49.410;11.030;2022-08-20T14:36:26;98055.28;;;21.21;100.00
68226;BME280;55045;49.410;11.030;2022-08-20T14:39:29;98053.47;;;21.22;100.00
68226;BME280;55045;49.410;11.030;2022-08-20T14:42:34;98044.38;;;20.87;100.00
68226;BME280;55045;49.410;11.030;2022-08-20T14:45:37;98043.56;;;20.77;100.00
68226;BME280;55045;49.410;11.030;2022-08-20T14:48:41;98066.16;;;20.80;100.00
68226;BME280;55045;49.410;11.030;2022-08-20T14:51:44;98017.06;;;20.50;100.00
68226;BME280;55045;49.410;11.030;2022-08-20T14:54:48;98072.13;;;20.82;100.00
68226;BME280;55045;49.410;11.030;2022-08-20T14:57:54;98084.06;;;20.86;100.00
68226;BME280;55045;49.410;11.030;2022-08-20T15:00:57;98084.31;;;20.92;100.00
68226;BME280;55045;49.410;11.030;2022-08-20T15:04:01;98076.25;;;21.04;100.00
68226;BME280;55045;49.410;11.030;2022-08-20T15:07:12;98068.25;;;20.95;100.00
68226;BME280;55045;49.410;11.030;2022-08-20T15:10:19;98086.97;;;20.92;100.00
68226;BME280;55045;49.410;11.030;2022-08-20T15:13:24;98074.47;;;20.94;100.00
68226;BME280;55045;49.410;11.030;2022-08-20T15:16:28;98069.47;;;21.01;100.00
68226;BME280;55045;49.410;11.030;2022-08-20T15:19:31;98068.25;;;20.86;100.00
68226;BME280;55045;49.410;11.030;2022-08-20T15:22:34;98075.59;;;20.82;100.00
68226;BME280;55045;49.410;11.030;2022-08-20T15:25:38;98071.56;;;20.78;100.00
68226;BME280;55045;49.410;11.030;2022-08-20T15:28:43;98076.16;;;20.76;100.00
68226;BME280;55045;49.410;11.030;2022-08-20T15:34:29;98076.00;;;20.78;100.00
68226;BME280;55045;49.410;11.030;2022-08-20T15:37:32;98070.75;;;20.78;100.00
68226;BME280;55045;49.410;11.030;2022-08-20T15:40:35;98045.06;;;20.80;100.00
68226;BME280;55045;49.410;11.030;2022-08-20T15:43:39;98052.97;;;20.99;100.00
68226;BME280;55045;49.410;11.030;2022-08-20T15:46:42;98044.38;;;20.97;100.00
68226;BME280;55045;49.410;11.030;2022-08-20T15:49:48;98041.97;;;21.04;100.00
68226;BME280;55045;49.410;11.030;2022-08-20T15:52:54;98022.44;;;20.96;100.00
68226;BME280;55045;49.410;11.030;2022-08-20T15:56:06;98032.03;;;20.88;100.00
68226;BME280;55045;49.410;11.030;2022-08-20T15:59:20;98051.16;;;20.99;100.00
68226;BME280;55045;49.410;11.030;2022-08-20T16:06:07;98052.69;;;20.92;100.00
68226;BME280;55045;49.410;11.030;2022-08-20T16:09:30;98055.59;;;20.89;100.00